ENVAEVVA

Guest
Details From ENVA - Vaernes
To EVVA - VENTSPILS INTL
Flight Number -
Tags decoded
Created
Modified
Stats Distance 491 nm / 910 km
Max Altitude 0 ft / 0 m
Waypoints 6
Social Downloads 3
Likes 0
Share VATSIM

Download

Looking for another format? Having issues loading an existing format? Contact us
Advertisement - Login to hide

Notes

Requested: ENVA SOLKA N133 MAVIP Y96 DEGAL NEKET M870 MILTA EVVA Unmatched points: N133 MAVIP M870

Route

ENVA SOLKA DEGAL NEKET MILTA EVVA

ID Type Via Altitude Latitude Longitude Leg Dist Tot Dist Heading (true) Name
O ENVA APT - 0 ft / 0 m 63.45760˚ 10.91798˚ - 0 nm - Vaernes
SOLKA FIX - 0 ft / 0 m 63.33083˚ 12.05250˚ 31 nm 31 nm 104° / 105° -
DEGAL FIX - 0 ft / 0 m 60.63883˚ 17.95667˚ 231 nm 263 nm 132° / 137° -
NEKET FIX - 0 ft / 0 m 58.30444˚ 20.57861˚ 161 nm 424 nm 149° / 151° -
MILTA FIX - 0 ft / 0 m 57.68806˚ 21.45528˚ 46 nm 471 nm 143° / 143° -
O EVVA APT - 0 ft / 0 m 57.35780˚ 21.54417˚ 20 nm 491 nm 172° / 172° VENTSPILS INTL

Altitude Profile

Advertisement - Login to hide

Weather


0- 5 10 15 20 25 30 35+ Temperature / ° C

Clouds and Precipitation
Forecast for 2017-12-13 00:00 UTC. Updated an hour ago

Ground ~20,000 ft ~40,000 ft Winds

ENVA

Details ICAO ENVA (TRD)
Name Vaernes
Region Norway
Timezone Europe/Oslo (UTC+1.0)
Stats Elevation 56 ft / 17 m (AMSL)
Location 63.457605° 10.917980°
Runways 1
Magnetic Variation 3.494° E

METAR

ENVA 122350Z 08007KT 0800 R09/P2000N R27/P2000N -SN VV008 M05/M05 Q0989 RMK WIND 670FT 21010KT

Decode

TAF

TAF ENVA 122300Z 1300/1324 12007KT 5000 -SHSN VV018 TEMPO 1300/1307 0800 SHSN VV005 BECMG 1300/1302 24012KT TEMPO 1300/1305 26015G25KT BECMG 1307/1310 12007KT CAVOK

Decode

Departure Runways

ID Width Length Bearing (true) Bearing (mag) Surface Threshold Offset Overrun Length
09 148 ft / 45 m 9,356 ft / 2,852 m 90.21° 86.72° Asphalt 984 ft / 300 m 0 ft / 0 m
27 148 ft / 45 m 9,356 ft / 2,852 m 270.26° 266.77° Asphalt 689 ft / 210 m 0 ft / 0 m

EVVA

Details ICAO EVVA (VTS)
Name VENTSPILS INTL
Region Latvia
Timezone Europe/Riga (UTC+2.0)
Stats Elevation 19 ft / 6 m (AMSL)
Location 57.357800° 21.544165°
Runways 1
Magnetic Variation 6.959° E

METAR

EVVA 122350Z AUTO 31017KT 9999 -RA BKN013 OVC019 03/01 Q0995

Decode

TAF

Not found

Destination Runways

ID Width Length Bearing (true) Bearing (mag) Surface Threshold Offset Overrun Length
03 105 ft / 32 m 4,251 ft / 1,296 m 35.42° 28.46° Asphalt 0 ft / 0 m 0 ft / 0 m
21 105 ft / 32 m 4,251 ft / 1,296 m 215.43° 208.47° Asphalt 0 ft / 0 m 0 ft / 0 m

Popular Alternatives